Time;durP1;ratioP1;P1;durP2;ratioP2;P2;SDS_P1;SDS_P2;PMS_P1;PMS_P2;Temp;Humidity;BMP_temperature;BMP_pressure;BME280_temperature;BME280_humidity;BME280_pressure;Samples;Min_cycle;Max_cycle;Signal;HPM_P1;HPM_P2
2023/01/01 00:00:11;;;;;;;5.53;4.80;;;19.10;54.10;;;;;;5066173;28;45274;-79
2023/01/01 00:02:38;;;;;;;5.30;4.80;;;19.10;54.10;;;;;;5066101;27;45204;-78
2023/01/01 00:05:05;;;;;;;6.60;5.07;;;19.10;54.10;;;;;;5066577;28;45420;-79
2023/01/01 00:07:33;;;;;;;6.13;4.60;;;19.10;54.10;;;;;;5065929;28;45312;-78
2023/01/01 00:12:41;;;;;;;5.28;4.45;;;19.10;54.10;;;;;;5052239;27;45437;-78
2023/01/01 00:15:08;;;;;;;6.50;5.13;;;19.10;54.00;;;;;;5065951;28;45344;-78
2023/01/01 00:17:35;;;;;;;5.18;4.70;;;19.10;54.10;;;;;;5065760;28;45527;-79
2023/01/01 00:20:01;;;;;;;5.38;4.88;;;19.10;54.10;;;;;;5066061;28;46564;-78
2023/01/01 00:22:28;;;;;;;5.43;4.78;;;19.10;54.10;;;;;;5065796;28;45191;-78
2023/01/01 00:24:56;;;;;;;5.80;5.22;;;19.10;54.10;;;;;;5065998;28;45240;-78
2023/01/01 00:27:23;;;;;;;5.70;4.82;;;19.10;54.10;;;;;;5065337;28;46658;-78
2023/01/01 00:29:50;;;;;;;5.40;4.90;;;19.10;54.10;;;;;;5065920;28;45199;-78
2023/01/01 00:32:17;;;;;;;5.15;4.65;;;19.10;54.10;;;;;;5065825;28;45160;-78
2023/01/01 00:34:43;;;;;;;6.10;4.85;;;19.10;54.00;;;;;;5064395;28;45396;-78
2023/01/01 00:37:10;;;;;;;5.93;4.43;;;19.10;54.10;;;;;;5064940;28;45482;-77
2023/01/01 00:39:37;;;;;;;5.30;4.80;;;19.10;54.10;;;;;;5064681;28;45285;-78
2023/01/01 00:42:05;;;;;;;5.15;4.30;;;19.10;54.10;;;;;;5065669;27;45300;-79
2023/01/01 00:44:32;;;;;;;4.95;4.45;;;19.10;54.10;;;;;;5065674;28;45166;-79
2023/01/01 00:46:59;;;;;;;6.35;5.00;;;19.10;54.10;;;;;;5065328;27;46396;-78
2023/01/01 00:49:26;;;;;;;5.10;4.32;;;19.10;54.10;;;;;;5065434;28;45239;-79
2023/01/01 00:51:53;;;;;;;5.15;4.65;;;19.10;54.10;;;;;;5065604;28;45340;-78
2023/01/01 00:54:20;;;;;;;6.50;4.90;;;19.10;54.70;;;;;;5065504;28;45407;-78
2023/01/01 00:56:47;;;;;;;5.30;4.80;;;19.10;54.10;;;;;;5065164;28;46357;-79
2023/01/01 00:59:15;;;;;;;6.20;4.47;;;19.10;54.10;;;;;;5065685;28;44650;-79
2023/01/01 01:01:42;;;;;;;5.15;4.60;;;19.10;54.10;;;;;;5065422;27;45366;-79
2023/01/01 01:04:08;;;;;;;5.82;4.70;;;19.10;54.10;;;;;;5065635;28;45503;-78
2023/01/01 01:06:35;;;;;;;5.10;4.60;;;19.10;54.10;;;;;;5065129;28;45192;-79
2023/01/01 01:09:02;;;;;;;5.53;4.47;;;19.10;54.10;;;;;;5065095;28;45180;-78
2023/01/01 01:11:30;;;;;;;5.18;4.68;;;19.10;54.10;;;;;;5065237;28;45217;-78
2023/01/01 01:13:57;;;;;;;5.18;4.68;;;19.10;54.60;;;;;;5065182;28;45488;-78
2023/01/01 01:16:26;;;;;;;4.40;4.00;;;19.10;54.10;;;;;;5065117;28;46714;-79
2023/01/01 01:18:53;;;;;;;5.00;4.50;;;19.10;54.10;;;;;;5064971;27;45198;-79
2023/01/01 01:21:20;;;;;;;5.30;4.70;;;19.10;54.10;;;;;;5064299;27;45157;-77
2023/01/01 01:23:47;;;;;;;4.78;4.32;;;19.10;54.10;;;;;;5064406;28;45267;-79
2023/01/01 01:26:15;;;;;;;5.50;4.25;;;19.10;54.10;;;;;;5064800;28;45280;-79
2023/01/01 01:28:42;;;;;;;5.00;4.40;;;19.10;54.10;;;;;;5064776;28;45138;-78
2023/01/01 01:31:09;;;;;;;5.13;4.25;;;19.10;54.10;;;;;;5064985;28;45187;-79
2023/01/01 01:33:37;;;;;;;5.00;4.50;;;19.10;54.10;;;;;;5065024;28;45452;-78
2023/01/01 01:36:04;;;;;;;4.20;3.80;;;19.10;54.10;;;;;;5064882;28;46520;-79
2023/01/01 01:38:31;;;;;;;4.97;4.45;;;19.10;54.10;;;;;;5064859;27;45205;-79
2023/01/01 01:40:58;;;;;;;4.70;4.20;;;19.10;54.10;;;;;;5064815;28;45252;-78
2023/01/01 01:43:26;;;;;;;4.82;4.32;;;19.10;54.10;;;;;;5065170;28;45309;-79
2023/01/01 01:45:54;;;;;;;4.68;4.20;;;19.10;54.10;;;;;;5064176;28;47572;-79
2023/01/01 01:48:21;;;;;;;4.45;4.05;;;19.10;54.10;;;;;;5064796;27;45168;-79
2023/01/01 01:50:51;;;;;;;5.03;4.50;;;19.10;54.20;;;;;;5064751;27;45129;-78
2023/01/01 01:53:22;;;;;;;4.95;4.28;;;19.10;54.20;;;;;;5065064;28;45336;-79
2023/01/01 01:55:50;;;;;;;4.82;4.43;;;19.00;54.10;;;;;;5064682;28;46697;-79
2023/01/01 01:58:17;;;;;;;4.63;4.22;;;19.00;54.10;;;;;;5064572;28;45345;-79
2023/01/01 02:00:44;;;;;;;4.88;4.18;;;19.00;54.10;;;;;;5064708;28;45232;-78
2023/01/01 02:03:13;;;;;;;5.13;4.72;;;19.00;54.10;;;;;;5064623;27;45331;-79
2023/01/01 02:05:40;;;;;;;5.40;4.90;;;19.00;54.10;;;;;;5064468;27;46397;-78
2023/01/01 02:08:08;;;;;;;5.25;4.75;;;19.00;54.10;;;;;;5064159;28;45372;-77
2023/01/01 02:10:36;;;;;;;4.47;4.13;;;19.00;54.10;;;;;;5063700;28;45369;-79
2023/01/01 02:13:02;;;;;;;4.50;4.10;;;19.00;54.10;;;;;;5064881;28;45238;-79
2023/01/01 02:15:30;;;;;;;4.78;4.28;;;19.00;54.10;;;;;;5064370;28;46607;-78
2023/01/01 02:18:00;;;;;;;4.60;4.20;;;19.00;54.20;;;;;;5064436;27;45330;-78
2023/01/01 02:20:35;;;;;;;5.47;4.00;;;19.00;54.20;;;;;;5064582;27;45238;-79
2023/01/01 02:23:23;;;;;;;5.07;4.15;;;19.00;54.20;;;;;;5064583;28;45259;-79
2023/01/01 02:26:21;;;;;;;4.07;3.78;;;19.00;54.20;;;;;;5064141;28;46662;-78
2023/01/01 02:28:53;;;;;;;4.20;3.80;;;19.00;54.20;;;;;;5015627;28;45457;-79
2023/01/01 02:31:22;;;;;;;4.53;4.07;;;19.00;54.20;;;;;;5063669;28;45163;-79
2023/01/01 02:33:49;;;;;;;4.50;4.10;;;18.90;54.20;;;;;;5064240;27;45398;-79
2023/01/01 02:36:16;;;;;;;5.05;4.30;;;18.90;54.20;;;;;;5064038;28;45549;-79
2023/01/01 02:38:44;;;;;;;5.20;4.70;;;18.90;54.20;;;;;;5063950;28;45217;-79
2023/01/01 02:41:12;;;;;;;5.53;4.65;;;18.90;54.20;;;;;;5064109;28;45202;-79
2023/01/01 02:43:39;;;;;;;4.50;3.83;;;18.90;54.20;;;;;;5064201;27;45300;-78
2023/01/01 02:46:08;;;;;;;5.28;4.25;;;18.90;54.20;;;;;;5063904;27;46454;-79
2023/01/01 02:48:37;;;;;;;4.40;4.00;;;18.90;54.20;;;;;;5064143;27;45287;-79
2023/01/01 02:51:09;;;;;;;5.22;4.35;;;18.90;54.20;;;;;;5063903;28;45251;-79
2023/01/01 02:53:37;;;;;;;4.45;4.05;;;18.90;54.20;;;;;;5064217;27;45251;-78
2023/01/01 02:56:06;;;;;;;4.60;3.67;;;18.90;54.20;;;;;;5063596;28;45256;-79
2023/01/01 03:01:28;;;;;;;4.22;3.83;;;18.90;54.20;;;;;;5101366;27;45351;-79
2023/01/01 03:04:00;;;;;;;4.70;4.20;;;18.90;54.20;;;;;;5063941;28;45192;-79
2023/01/01 03:06:29;;;;;;;4.47;4.00;;;18.90;54.20;;;;;;5063665;28;46513;-79
2023/01/01 03:09:02;;;;;;;4.65;3.83;;;18.90;54.20;;;;;;5063413;28;45459;-79
2023/01/01 03:11:32;;;;;;;4.47;4.05;;;18.90;54.20;;;;;;5063792;27;45181;-78
2023/01/01 03:14:01;;;;;;;4.25;3.85;;;18.90;54.20;;;;;;5063765;27;45339;-79
2023/01/01 03:16:31;;;;;;;4.10;3.70;;;18.90;54.20;;;;;;5063411;28;46295;-78
2023/01/01 03:19:10;;;;;;;4.38;3.97;;;18.90;54.20;;;;;;5063598;28;45301;-79
2023/01/01 03:21:42;;;;;;;4.40;3.95;;;18.90;54.20;;;;;;5063377;28;45290;-79
2023/01/01 03:24:10;;;;;;;4.03;3.63;;;18.90;54.20;;;;;;5063647;27;45279;-77
2023/01/01 03:26:37;;;;;;;3.92;3.63;;;18.80;54.20;;;;;;5060583;28;45041;-79
2023/01/01 03:29:04;;;;;;;5.13;3.58;;;18.80;54.20;;;;;;5063520;28;45155;-79
2023/01/01 03:31:32;;;;;;;4.20;3.80;;;18.80;54.20;;;;;;5063525;28;45190;-79
2023/01/01 03:34:00;;;;;;;4.40;3.60;;;18.80;54.20;;;;;;5063614;28;45438;-79
2023/01/01 03:36:28;;;;;;;4.68;3.90;;;18.80;54.20;;;;;;5062983;28;46364;-79
2023/01/01 03:38:57;;;;;;;3.60;3.30;;;18.80;54.20;;;;;;5062282;28;45179;-79
2023/01/01 03:41:27;;;;;;;3.55;3.25;;;18.80;54.80;;;;;;5063420;27;45414;-79
2023/01/01 03:43:54;;;;;;;4.15;3.75;;;18.80;54.80;;;;;;5063373;28;45367;-79
2023/01/01 03:46:23;;;;;;;4.00;3.60;;;18.80;54.20;;;;;;5063184;28;45478;-79
2023/01/01 03:48:56;;;;;;;3.90;3.50;;;18.80;54.20;;;;;;5062988;28;45300;-78
2023/01/01 03:51:26;;;;;;;4.15;3.67;;;18.80;54.20;;;;;;5063115;28;45316;-79
2023/01/01 03:53:53;;;;;;;3.80;3.47;;;18.80;54.20;;;;;;5063253;27;45229;-79
2023/01/01 03:56:21;;;;;;;4.13;3.65;;;18.80;54.30;;;;;;5062991;28;45481;-79
2023/01/01 03:58:50;;;;;;;3.95;3.35;;;18.80;54.30;;;;;;5062771;27;45354;-79
2023/01/01 04:01:21;;;;;;;3.95;3.60;;;18.80;54.30;;;;;;5062819;27;45187;-79
2023/01/01 04:03:47;;;;;;;3.92;3.53;;;18.80;54.30;;;;;;5062889;28;45424;-79
2023/01/01 04:06:15;;;;;;;3.80;3.50;;;18.80;54.30;;;;;;5062803;28;45436;-78
2023/01/01 04:08:42;;;;;;;3.70;3.33;;;18.80;54.30;;;;;;5063567;28;45188;-79
2023/01/01 04:13:52;;;;;;;4.10;3.70;;;18.80;54.30;;;;;;5065843;27;45140;-79
2023/01/01 04:16:19;;;;;;;3.33;3.03;;;18.80;54.20;;;;;;5065761;28;46622;-79
2023/01/01 04:18:46;;;;;;;3.72;3.40;;;18.80;54.20;;;;;;5065807;28;45150;-79
2023/01/01 04:21:13;;;;;;;3.67;3.38;;;18.80;54.30;;;;;;5065879;28;45278;-78
2023/01/01 04:23:41;;;;;;;3.88;3.55;;;18.80;54.30;;;;;;5065926;28;45447;-78
2023/01/01 04:26:12;;;;;;;4.00;3.60;;;18.80;54.30;;;;;;5065465;28;45480;-77
2023/01/01 04:28:39;;;;;;;3.60;3.30;;;18.80;54.30;;;;;;5065752;28;45240;-78
2023/01/01 04:31:06;;;;;;;4.35;3.58;;;18.70;54.20;;;;;;5065852;28;45264;-79
2023/01/01 04:33:33;;;;;;;3.47;3.17;;;18.70;54.20;;;;;;5065037;28;45450;-79
2023/01/01 04:36:04;;;;;;;3.40;3.10;;;18.80;54.30;;;;;;5065383;28;45229;-78
2023/01/01 04:38:30;;;;;;;3.22;2.90;;;18.70;54.20;;;;;;5065656;27;45312;-79
2023/01/01 04:40:59;;;;;;;3.58;3.22;;;18.70;54.20;;;;;;5065762;28;45201;-78
2023/01/01 04:43:26;;;;;;;3.50;3.20;;;18.70;54.80;;;;;;5065683;28;45386;-79
2023/01/01 04:45:56;;;;;;;3.50;3.17;;;18.70;54.20;;;;;;5065588;28;46552;-79
2023/01/01 04:48:23;;;;;;;3.13;2.88;;;18.70;54.20;;;;;;5065648;27;45230;-78
2023/01/01 04:50:55;;;;;;;3.28;2.97;;;18.70;54.20;;;;;;5065463;28;45191;-78
2023/01/01 04:53:22;;;;;;;3.20;2.90;;;18.70;54.30;;;;;;5065527;27;45278;-79
2023/01/01 04:55:48;;;;;;;3.47;3.20;;;18.70;54.30;;;;;;5065446;28;46420;-78
2023/01/01 04:58:16;;;;;;;3.58;3.28;;;18.70;54.30;;;;;;5065417;28;45197;-79
2023/01/01 05:00:43;;;;;;;3.78;3.10;;;18.70;54.20;;;;;;5065491;28;45307;-78
2023/01/01 05:03:10;;;;;;;3.10;2.90;;;18.70;54.20;;;;;;5065514;28;45430;-79
2023/01/01 05:05:37;;;;;;;3.35;3.00;;;18.70;54.30;;;;;;5065173;27;45227;-78
2023/01/01 05:08:04;;;;;;;3.42;3.13;;;18.70;54.30;;;;;;5065396;28;45255;-78
2023/01/01 05:10:30;;;;;;;3.65;3.20;;;18.60;54.30;;;;;;5065350;28;45148;-79
2023/01/01 05:12:57;;;;;;;3.60;3.30;;;18.70;54.30;;;;;;5065271;28;45402;-79
2023/01/01 05:15:25;;;;;;;3.60;3.05;;;18.60;54.20;;;;;;5065082;28;45333;-78
2023/01/01 05:17:53;;;;;;;3.20;3.00;;;18.60;54.30;;;;;;5065012;28;45534;-78
2023/01/01 05:20:20;;;;;;;3.08;2.85;;;18.60;54.30;;;;;;5063913;28;45125;-77
2023/01/01 05:22:47;;;;;;;3.35;3.05;;;18.60;54.30;;;;;;5064707;28;45415;-79
2023/01/01 05:25:14;;;;;;;3.10;2.90;;;18.60;54.30;;;;;;5064897;28;45472;-78
2023/01/01 05:27:41;;;;;;;3.33;3.03;;;18.60;54.30;;;;;;5064783;27;45421;-78
2023/01/01 05:30:09;;;;;;;3.55;3.25;;;18.60;54.20;;;;;;5065308;28;45323;-79
2023/01/01 05:32:38;;;;;;;3.22;3.00;;;18.60;54.30;;;;;;5064979;28;45182;-79
2023/01/01 05:35:05;;;;;;;3.28;2.97;;;18.60;54.30;;;;;;5064869;27;46708;-78
2023/01/01 05:37:32;;;;;;;3.63;3.03;;;18.60;54.30;;;;;;5064940;28;45219;-78
2023/01/01 05:39:59;;;;;;;3.22;2.50;;;18.60;54.30;;;;;;5065016;27;45207;-79
2023/01/01 05:42:25;;;;;;;3.10;2.80;;;18.60;54.30;;;;;;5064964;28;45398;-78
2023/01/01 05:44:52;;;;;;;3.00;2.70;;;18.60;54.30;;;;;;5064807;28;46365;-79
2023/01/01 05:47:21;;;;;;;3.40;3.10;;;18.60;54.30;;;;;;5064677;28;45297;-79
2023/01/01 05:49:49;;;;;;;3.17;2.90;;;18.60;54.30;;;;;;5065306;28;45173;-78
2023/01/01 05:52:16;;;;;;;2.92;2.65;;;18.60;54.30;;;;;;5065262;28;45391;-77
2023/01/01 05:54:42;;;;;;;3.53;2.50;;;18.60;54.30;;;;;;5064945;28;45313;-77
2023/01/01 05:57:09;;;;;;;3.33;3.03;;;18.60;54.30;;;;;;5065152;28;45348;-78
2023/01/01 05:59:36;;;;;;;2.78;2.58;;;18.50;54.20;;;;;;5064976;28;45212;-77
2023/01/01 06:02:03;;;;;;;3.10;2.80;;;18.50;54.20;;;;;;5064615;28;45125;-75
2023/01/01 06:04:30;;;;;;;3.10;2.80;;;18.60;54.30;;;;;;5064415;28;45353;-78
2023/01/01 06:06:58;;;;;;;3.00;2.70;;;18.50;54.20;;;;;;5064893;28;45167;-77
2023/01/01 06:09:24;;;;;;;2.58;2.38;;;18.50;54.80;;;;;;5064909;28;45154;-78
2023/01/01 06:11:51;;;;;;;2.80;2.60;;;18.50;54.20;;;;;;5064917;28;45376;-78
2023/01/01 06:14:18;;;;;;;3.00;2.70;;;18.50;54.20;;;;;;5064511;28;46415;-78
2023/01/01 06:16:45;;;;;;;2.70;2.50;;;18.50;54.20;;;;;;5064914;28;45190;-77
2023/01/01 06:19:12;;;;;;;3.00;2.70;;;18.50;54.20;;;;;;5065016;27;45235;-78
2023/01/01 06:21:39;;;;;;;2.50;2.30;;;18.50;54.20;;;;;;5064951;28;45345;-77
2023/01/01 06:24:08;;;;;;;2.90;2.70;;;18.50;54.30;;;;;;5064545;28;46746;-77
2023/01/01 06:26:35;;;;;;;2.80;2.50;;;18.50;54.20;;;;;;5064326;28;45280;-78
2023/01/01 06:29:02;;;;;;;2.75;2.53;;;18.50;54.30;;;;;;5064986;28;45213;-78
2023/01/01 06:31:29;;;;;;;2.40;2.13;;;18.40;54.30;;;;;;5064582;27;45594;-78
2023/01/01 06:33:56;;;;;;;2.63;2.42;;;18.40;54.20;;;;;;5064089;28;45282;-77
2023/01/01 06:36:24;;;;;;;2.28;2.17;;;18.40;54.20;;;;;;5064458;28;45209;-77
2023/01/01 06:38:51;;;;;;;3.08;2.78;;;18.40;54.20;;;;;;5064525;28;45204;-77
2023/01/01 06:41:20;;;;;;;2.75;2.50;;;18.40;54.20;;;;;;5064590;28;45446;-78
2023/01/01 06:43:47;;;;;;;2.65;2.45;;;18.40;54.20;;;;;;5063986;27;45232;-77
2023/01/01 06:46:16;;;;;;;2.63;2.42;;;18.40;54.20;;;;;;5064293;27;45193;-78
2023/01/01 06:48:42;;;;;;;2.72;2.30;;;18.40;54.20;;;;;;5064275;27;45179;-76
2023/01/01 06:51:10;;;;;;;2.58;2.38;;;18.40;54.80;;;;;;5063569;28;45399;-78
2023/01/01 06:53:37;;;;;;;2.70;2.50;;;18.40;54.30;;;;;;5063685;28;46371;-78
2023/01/01 06:56:04;;;;;;;2.03;1.92;;;18.40;54.30;;;;;;5064030;28;45192;-78
2023/01/01 06:58:32;;;;;;;2.85;2.65;;;18.40;54.30;;;;;;5064238;28;45183;-78
2023/01/01 07:01:05;;;;;;;2.55;2.35;;;18.40;54.30;;;;;;5064118;28;45331;-78
2023/01/01 07:03:32;;;;;;;2.92;2.58;;;18.40;54.30;;;;;;5063658;28;45504;-78
2023/01/01 07:05:59;;;;;;;3.10;2.22;;;18.40;54.30;;;;;;5063580;28;46409;-78
2023/01/01 07:08:26;;;;;;;2.38;2.17;;;18.30;54.20;;;;;;5063802;28;45300;-78
2023/01/01 07:10:55;;;;;;;2.42;2.22;;;18.30;54.20;;;;;;5063784;28;45306;-78
2023/01/01 07:13:22;;;;;;;2.40;2.20;;;18.30;54.20;;;;;;5063559;28;46553;-78
2023/01/01 07:15:50;;;;;;;2.53;2.33;;;18.30;54.30;;;;;;5063737;28;45288;-78
2023/01/01 07:18:17;;;;;;;2.63;2.30;;;18.30;54.80;;;;;;5063922;28;45277;-77
2023/01/01 07:20:44;;;;;;;2.63;2.42;;;18.30;54.20;;;;;;5063917;28;45444;-78
2023/01/01 07:23:11;;;;;;;2.50;2.30;;;18.30;54.20;;;;;;5063758;27;45344;-79
2023/01/01 07:25:41;;;;;;;2.85;2.60;;;18.30;54.20;;;;;;5063892;28;45192;-78
2023/01/01 07:28:08;;;;;;;2.70;2.50;;;18.30;54.20;;;;;;5063473;28;45521;-78
2023/01/01 07:30:35;;;;;;;2.42;2.22;;;18.30;54.20;;;;;;5063816;28;45437;-78
2023/01/01 07:33:03;;;;;;;2.50;2.30;;;18.30;54.20;;;;;;5063105;28;47540;-78
2023/01/01 07:35:30;;;;;;;2.88;2.40;;;18.30;54.20;;;;;;5063168;28;45456;-79
2023/01/01 07:37:56;;;;;;;2.30;2.10;;;18.30;54.20;;;;;;5062804;28;45346;-78
2023/01/01 07:40:23;;;;;;;2.03;1.92;;;18.30;54.20;;;;;;5063626;28;45256;-78
2023/01/01 07:42:50;;;;;;;1.95;1.83;;;18.30;54.20;;;;;;5063290;28;46495;-79
2023/01/01 07:45:17;;;;;;;2.28;2.08;;;18.20;54.20;;;;;;5066380;28;45130;-78
2023/01/01 07:47:44;;;;;;;2.28;2.08;;;18.20;54.20;;;;;;5066579;28;45120;-78
2023/01/01 07:50:16;;;;;;;2.40;2.20;;;18.20;54.20;;;;;;5066587;27;45556;-78
2023/01/01 07:52:42;;;;;;;2.55;2.00;;;18.20;54.20;;;;;;5065935;28;47228;-78
2023/01/01 07:55:12;;;;;;;2.40;2.20;;;18.20;54.20;;;;;;5066385;28;45125;-78
2023/01/01 07:57:39;;;;;;;2.38;2.17;;;18.20;54.20;;;;;;5066776;28;45299;-78
2023/01/01 08:00:07;;;;;;;2.65;2.05;;;18.20;54.20;;;;;;5066637;28;45482;-78
2023/01/01 08:02:33;;;;;;;2.75;2.13;;;18.20;54.20;;;;;;5066043;28;47260;-78
2023/01/01 08:05:00;;;;;;;2.17;1.98;;;18.20;54.20;;;;;;5066106;28;45255;-78
2023/01/01 08:07:28;;;;;;;2.60;2.30;;;18.20;54.20;;;;;;5066290;28;45259;-78
2023/01/01 08:09:55;;;;;;;2.00;1.80;;;18.20;54.10;;;;;;5066510;28;45163;-78
2023/01/01 08:12:22;;;;;;;1.95;1.85;;;18.20;54.10;;;;;;5065918;28;46674;-78
2023/01/01 08:14:49;;;;;;;2.22;2.03;;;18.20;54.10;;;;;;5066182;28;45164;-78
2023/01/01 08:17:15;;;;;;;3.20;2.22;;;18.20;54.20;;;;;;5066447;28;45343;-78
2023/01/01 08:19:43;;;;;;;2.22;2.05;;;18.20;54.20;;;;;;5066350;27;45460;-78
2023/01/01 08:22:10;;;;;;;2.22;2.00;;;18.20;54.20;;;;;;5064988;28;45555;-78
2023/01/01 08:24:38;;;;;;;2.35;2.15;;;18.20;54.20;;;;;;5063246;28;45203;-79
2023/01/01 08:27:05;;;;;;;2.33;2.13;;;18.20;54.20;;;;;;5065660;27;45133;-78
2023/01/01 08:29:32;;;;;;;2.20;2.03;;;18.20;54.20;;;;;;5066288;28;45508;-78
2023/01/01 08:31:58;;;;;;;2.20;1.80;;;18.20;54.20;;;;;;5065490;28;46508;-78
2023/01/01 08:34:25;;;;;;;2.28;2.08;;;18.20;54.20;;;;;;5065656;28;45297;-78
2023/01/01 08:36:52;;;;;;;2.35;1.88;;;18.20;54.20;;;;;;5065734;28;45129;-78
2023/01/01 08:39:19;;;;;;;2.08;1.88;;;18.20;54.20;;;;;;5066205;28;45136;-78
2023/01/01 08:41:47;;;;;;;1.83;1.73;;;18.20;54.20;;;;;;5065543;28;46744;-78
2023/01/01 08:44:14;;;;;;;2.08;1.92;;;18.20;54.20;;;;;;5065753;28;45387;-77
2023/01/01 08:46:40;;;;;;;1.80;1.70;;;18.20;54.20;;;;;;5065739;28;45253;-78
2023/01/01 08:49:07;;;;;;;2.30;2.10;;;18.20;54.20;;;;;;5065870;28;45198;-78
2023/01/01 08:51:34;;;;;;;2.08;1.73;;;18.20;54.20;;;;;;5065317;28;45451;-78
2023/01/01 08:54:01;;;;;;;2.25;2.05;;;18.20;54.20;;;;;;5065210;28;45324;-78
2023/01/01 08:56:28;;;;;;;2.20;2.00;;;18.20;54.20;;;;;;5064205;28;45341;-78
2023/01/01 08:58:56;;;;;;;1.83;1.73;;;18.20;54.20;;;;;;5065740;28;45399;-78
2023/01/01 09:01:26;;;;;;;2.40;2.17;;;18.20;54.20;;;;;;5065301;28;46356;-78
2023/01/01 09:03:53;;;;;;;1.83;1.73;;;18.20;54.20;;;;;;5065140;28;45290;-79
2023/01/01 09:06:20;;;;;;;3.40;2.03;;;18.20;54.20;;;;;;5064808;28;45315;-79
2023/01/01 09:08:47;;;;;;;2.30;2.10;;;18.20;54.20;;;;;;5065358;28;45125;-78
2023/01/01 09:11:21;;;;;;;2.30;1.90;;;18.20;54.10;;;;;;5065170;28;45577;-78
2023/01/01 09:13:48;;;;;;;1.80;1.70;;;18.20;54.10;;;;;;5065010;27;45136;-78
2023/01/01 09:16:16;;;;;;;1.88;1.77;;;18.20;54.10;;;;;;5065393;28;45206;-78
2023/01/01 09:18:43;;;;;;;2.17;1.98;;;18.20;54.10;;;;;;5065587;28;45340;-78
2023/01/01 09:21:10;;;;;;;2.15;1.95;;;18.20;54.70;;;;;;5065054;28;45539;-78
2023/01/01 09:23:36;;;;;;;2.33;2.13;;;18.20;54.10;;;;;;5064920;28;45251;-78
2023/01/01 09:26:03;;;;;;;2.08;1.85;;;18.20;54.70;;;;;;5065395;28;45179;-77
2023/01/01 09:28:30;;;;;;;2.22;2.03;;;18.30;54.10;;;;;;5065452;28;45432;-78
2023/01/01 09:30:57;;;;;;;2.20;2.00;;;18.30;54.10;;;;;;5064788;28;45343;-78
2023/01/01 09:33:25;;;;;;;2.53;1.83;;;18.30;54.10;;;;;;5064632;28;45358;-78
2023/01/01 09:35:52;;;;;;;1.92;1.80;;;18.30;54.00;;;;;;5065188;27;45202;-78
2023/01/01 09:38:19;;;;;;;1.90;1.80;;;18.30;54.00;;;;;;5065263;28;45144;-78
2023/01/01 09:40:51;;;;;;;2.10;1.90;;;18.30;54.00;;;;;;5065029;28;46539;-78
2023/01/01 09:43:21;;;;;;;2.13;1.60;;;18.40;54.00;;;;;;5064923;28;45343;-78
2023/01/01 09:45:55;;;;;;;2.78;1.90;;;18.40;54.00;;;;;;5065140;28;45255;-78
2023/01/01 09:48:21;;;;;;;2.20;2.00;;;18.40;54.00;;;;;;5065072;27;45386;-78
2023/01/01 09:50:50;;;;;;;1.77;1.63;;;18.40;53.90;;;;;;5064779;28;45459;-77
2023/01/01 09:53:18;;;;;;;2.97;2.30;;;18.40;53.90;;;;;;5064703;28;45312;-78
2023/01/01 09:55:47;;;;;;;1.80;1.70;;;18.50;53.90;;;;;;5065302;28;45202;-78
2023/01/01 09:58:14;;;;;;;1.92;1.75;;;18.50;53.80;;;;;;5064450;28;45435;-78
2023/01/01 10:00:43;;;;;;;1.92;1.70;;;18.50;53.80;;;;;;5065284;28;46624;-78
2023/01/01 10:03:33;;;;;;;1.70;1.60;;;18.50;53.70;;;;;;5064539;27;45174;-78
2023/01/01 10:06:06;;;;;;;1.70;1.60;;;18.60;53.70;;;;;;5063606;28;45331;-79
2023/01/01 10:08:39;;;;;;;1.90;1.70;;;18.60;53.60;;;;;;5064574;28;45260;-79
2023/01/01 10:11:11;;;;;;;1.67;1.58;;;18.60;53.60;;;;;;5064293;28;46321;-79
2023/01/01 10:13:39;;;;;;;1.90;1.80;;;18.60;53.60;;;;;;5064309;28;45251;-78
2023/01/01 10:16:10;;;;;;;2.35;1.90;;;18.60;53.50;;;;;;5064602;28;45162;-79
2023/01/01 10:18:37;;;;;;;2.47;1.88;;;18.70;53.50;;;;;;5064763;27;45149;-79
2023/01/01 10:21:09;;;;;;;1.70;1.58;;;18.80;53.50;;;;;;5064187;28;45889;-78
2023/01/01 10:23:40;;;;;;;1.70;1.60;;;18.80;53.40;;;;;;5064364;28;45331;-79
2023/01/01 10:26:09;;;;;;;2.17;1.67;;;18.80;53.30;;;;;;5064427;28;45243;-79
2023/01/01 10:28:40;;;;;;;1.80;1.70;;;18.80;53.30;;;;;;5064397;28;45352;-78
2023/01/01 10:31:14;;;;;;;1.60;1.50;;;18.90;53.80;;;;;;5064110;27;45400;-79
2023/01/01 10:33:41;;;;;;;1.95;1.77;;;18.90;53.20;;;;;;5063959;28;45209;-79
2023/01/01 10:36:10;;;;;;;1.65;1.55;;;19.00;53.10;;;;;;5064238;28;45153;-78
2023/01/01 10:38:37;;;;;;;1.60;1.50;;;19.00;53.10;;;;;;5064649;28;45178;-79
2023/01/01 10:41:06;;;;;;;1.98;1.77;;;19.00;53.00;;;;;;5064041;28;45197;-79
2023/01/01 10:43:33;;;;;;;2.45;1.65;;;19.10;53.00;;;;;;5064064;28;45455;-78
2023/01/01 10:46:00;;;;;;;1.60;1.50;;;19.10;53.00;;;;;;5064188;28;45340;-78
2023/01/01 10:48:29;;;;;;;1.50;1.40;;;19.10;52.90;;;;;;5064409;28;45425;-79
2023/01/01 10:50:58;;;;;;;1.48;1.38;;;19.20;52.80;;;;;;5063675;28;45231;-80
2023/01/01 10:53:27;;;;;;;2.00;1.80;;;19.20;52.70;;;;;;5063830;27;45321;-78
2023/01/01 10:56:05;;;;;;;1.70;1.60;;;19.30;52.70;;;;;;5064222;28;45207;-78
2023/01/01 10:58:40;;;;;;;1.77;1.67;;;19.30;52.60;;;;;;5064593;28;45492;-77
2023/01/01 11:01:07;;;;;;;1.50;1.40;;;19.30;52.60;;;;;;5063610;28;46311;-77
2023/01/01 11:03:34;;;;;;;1.50;1.40;;;19.40;52.60;;;;;;5063693;28;45382;-80
2023/01/01 11:06:14;;;;;;;2.08;1.50;;;19.40;52.50;;;;;;5063946;28;45332;-79
2023/01/01 11:08:47;;;;;;;1.80;1.70;;;19.50;52.40;;;;;;5061410;28;45279;-77
2023/01/01 11:11:19;;;;;;;1.77;1.45;;;19.50;52.30;;;;;;5063681;28;45227;-79
2023/01/01 11:13:49;;;;;;;1.83;1.60;;;19.50;52.20;;;;;;5063409;27;45364;-79
2023/01/01 11:16:15;;;;;;;1.70;1.60;;;19.60;52.10;;;;;;5062929;28;45229;-79
2023/01/01 11:18:42;;;;;;;1.85;1.70;;;19.60;52.10;;;;;;5064617;28;45173;-79
2023/01/01 11:21:09;;;;;;;1.52;1.42;;;19.70;52.00;;;;;;5066554;28;45264;-79
2023/01/01 11:23:37;;;;;;;1.80;1.70;;;19.70;52.00;;;;;;5066586;28;45392;-80
2023/01/01 11:26:06;;;;;;;1.77;1.67;;;19.70;52.00;;;;;;5064098;28;45182;-80
2023/01/01 11:28:34;;;;;;;1.48;1.38;;;19.70;52.10;;;;;;5066541;28;45244;-79
2023/01/01 11:31:06;;;;;;;1.92;1.73;;;19.70;52.00;;;;;;5066315;27;46701;-79
2023/01/01 11:33:34;;;;;;;1.67;1.58;;;19.80;52.00;;;;;;5066294;28;45291;-80
2023/01/01 11:36:01;;;;;;;1.77;1.50;;;19.80;51.80;;;;;;5066526;27;45473;-77
2023/01/01 11:38:28;;;;;;;1.60;1.50;;;19.90;51.80;;;;;;5066498;28;45166;-79
2023/01/01 11:40:55;;;;;;;1.90;1.70;;;20.00;51.70;;;;;;5066186;28;45417;-79
2023/01/01 11:43:24;;;;;;;1.63;1.52;;;20.00;51.60;;;;;;5066252;28;45145;-79
2023/01/01 11:45:52;;;;;;;1.70;1.60;;;20.10;51.50;;;;;;5066553;28;45297;-79
2023/01/01 11:48:20;;;;;;;1.60;1.50;;;20.10;51.40;;;;;;5066474;28;45383;-78
2023/01/01 11:50:51;;;;;;;1.70;1.60;;;20.10;51.40;;;;;;5066159;28;47187;-79
2023/01/01 11:53:19;;;;;;;2.13;1.77;;;20.20;51.30;;;;;;5066135;27;45270;-79
2023/01/01 11:55:48;;;;;;;1.40;1.30;;;20.30;51.30;;;;;;5066333;28;45125;-79
2023/01/01 11:58:16;;;;;;;1.45;1.35;;;20.30;51.80;;;;;;5066499;27;45395;-78
2023/01/01 12:00:44;;;;;;;1.77;1.40;;;20.40;51.20;;;;;;5066032;28;46572;-78
2023/01/01 12:03:15;;;;;;;1.58;1.30;;;20.40;51.10;;;;;;5065973;28;45251;-78
2023/01/01 12:05:46;;;;;;;1.58;1.48;;;20.50;51.10;;;;;;5066196;28;44764;-78
2023/01/01 12:08:17;;;;;;;1.13;1.13;;;20.50;51.10;;;;;;5065539;28;45406;-79
2023/01/01 12:10:46;;;;;;;2.17;1.60;;;20.50;51.20;;;;;;5065016;28;45489;-78
2023/01/01 12:13:15;;;;;;;1.65;1.55;;;20.40;51.30;;;;;;5065687;27;45177;-79
2023/01/01 12:15:47;;;;;;;1.50;1.40;;;20.40;51.50;;;;;;5065983;27;45364;-79
2023/01/01 12:18:16;;;;;;;1.55;1.45;;;20.30;51.50;;;;;;5066163;28;45372;-78
2023/01/01 12:20:44;;;;;;;1.77;1.67;;;20.20;51.60;;;;;;5066118;27;46379;-78
2023/01/01 12:23:11;;;;;;;1.40;1.30;;;20.20;51.70;;;;;;5065772;28;45261;-79
2023/01/01 12:25:39;;;;;;;1.73;1.63;;;20.20;51.80;;;;;;5065930;28;45454;-79
2023/01/01 12:28:15;;;;;;;1.45;1.20;;;20.20;51.90;;;;;;5065780;27;45248;-79
2023/01/01 12:30:44;;;;;;;1.52;1.42;;;20.20;51.80;;;;;;5065754;27;46274;-79
2023/01/01 12:33:25;;;;;;;1.80;1.70;;;20.30;51.70;;;;;;5065545;28;45233;-79
2023/01/01 12:36:01;;;;;;;1.50;1.40;;;20.20;51.70;;;;;;5065734;27;45246;-79
2023/01/01 12:39:00;;;;;;;1.48;1.38;;;20.20;51.90;;;;;;5065799;27;45277;-79
2023/01/01 12:41:29;;;;;;;1.92;1.40;;;20.20;52.00;;;;;;5017717;28;45585;-79
2023/01/01 12:43:59;;;;;;;2.25;1.50;;;20.10;52.10;;;;;;5065554;28;45259;-79
2023/01/01 12:46:41;;;;;;;1.50;1.40;;;20.10;52.20;;;;;;5065618;27;45213;-79
2023/01/01 12:49:24;;;;;;;1.42;1.27;;;20.10;52.20;;;;;;5065815;27;45481;-79
2023/01/01 12:51:58;;;;;;;1.50;1.40;;;20.10;52.30;;;;;;5065056;28;46644;-79
2023/01/01 12:54:47;;;;;;;1.10;1.10;;;20.00;52.20;;;;;;5065243;28;45280;-79
2023/01/01 12:57:15;;;;;;;1.60;1.40;;;20.00;52.30;;;;;;5020819;28;45365;-79
2023/01/01 12:59:44;;;;;;;1.58;1.48;;;20.00;52.40;;;;;;5065787;28;45187;-79
2023/01/01 13:02:13;;;;;;;1.67;1.50;;;20.00;52.40;;;;;;5065109;28;46668;-79